Time;durP1;ratioP1;P1;durP2;ratioP2;P2;SDS_P1;SDS_P2;PMS_P1;PMS_P2;Temp;Humidity;BMP_temperature;BMP_pressure;BME280_temperature;BME280_humidity;BME280_pressure;Samples;Min_cycle;Max_cycle;Signal;HPM_P1;HPM_P2
2023/04/26 03:02:09;;;;;;;11.52;3.90;;;3.60;99.90;;;;;;5175013;23;20074;-77
2023/04/26 03:04:34;;;;;;;11.52;3.15;;;3.60;99.90;;;;;;4956866;28;20415;-77
2023/04/26 03:07:02;;;;;;;9.25;2.90;;;3.60;99.90;;;;;;4957438;28;20043;-75
2023/04/26 03:09:28;;;;;;;6.80;3.28;;;3.50;99.90;;;;;;4958780;28;20417;-76
2023/04/26 03:11:53;;;;;;;14.90;3.13;;;3.50;99.90;;;;;;4957737;28;20158;-77
2023/04/26 03:14:19;;;;;;;9.60;2.78;;;3.50;99.90;;;;;;4957681;28;20086;-76
2023/04/26 03:16:45;;;;;;;9.85;3.10;;;3.50;99.90;;;;;;4957672;28;20077;-78
2023/04/26 03:19:10;;;;;;;12.30;3.10;;;3.50;99.90;;;;;;4956607;28;20105;-77
2023/04/26 03:21:36;;;;;;;8.23;3.15;;;3.50;99.90;;;;;;4974810;28;20149;-77
2023/04/26 03:24:02;;;;;;;11.93;3.10;;;3.50;99.90;;;;;;4957364;28;20498;-78
2023/04/26 03:26:27;;;;;;;7.63;2.88;;;3.50;99.90;;;;;;4957153;28;20039;-78
2023/04/26 03:28:53;;;;;;;12.15;3.47;;;3.40;99.90;;;;;;4941415;28;20047;-76
2023/04/26 03:31:20;;;;;;;9.98;3.08;;;3.40;99.90;;;;;;4957262;28;20038;-76
2023/04/26 03:33:46;;;;;;;10.38;3.03;;;3.40;99.90;;;;;;4957048;28;20062;-76
2023/04/26 03:36:11;;;;;;;7.85;3.00;;;3.40;99.90;;;;;;4974502;28;20105;-75
2023/04/26 03:38:37;;;;;;;10.63;3.00;;;3.40;99.90;;;;;;4974847;28;20089;-77
2023/04/26 03:41:03;;;;;;;14.32;3.95;;;3.40;99.90;;;;;;4957059;28;20049;-78
2023/04/26 03:43:28;;;;;;;11.15;4.10;;;3.40;99.90;;;;;;4957001;28;20055;-76
2023/04/26 03:45:54;;;;;;;10.88;3.25;;;3.40;99.90;;;;;;4957014;28;20034;-77
2023/04/26 03:48:20;;;;;;;8.25;2.75;;;3.40;99.90;;;;;;4974284;28;20069;-77
2023/04/26 03:50:46;;;;;;;10.65;3.50;;;3.30;99.90;;;;;;4974400;28;20031;-77
2023/04/26 03:53:11;;;;;;;6.90;2.80;;;3.30;99.90;;;;;;4974667;28;20495;-76
2023/04/26 03:55:37;;;;;;;11.65;3.72;;;3.30;99.90;;;;;;4974211;28;20046;-77
2023/04/26 03:58:06;;;;;;;10.07;3.17;;;3.20;99.90;;;;;;4956694;28;20042;-76
2023/04/26 04:00:34;;;;;;;7.68;3.08;;;3.20;99.90;;;;;;4956771;28;20097;-75
2023/04/26 04:02:59;;;;;;;10.85;3.10;;;3.10;99.90;;;;;;4956696;28;20069;-76
2023/04/26 04:05:25;;;;;;;13.13;3.75;;;3.10;99.90;;;;;;4956717;28;20400;-79
2023/04/26 04:07:51;;;;;;;10.20;3.50;;;3.00;99.90;;;;;;4956560;28;20390;-77
2023/04/26 04:10:16;;;;;;;13.00;3.97;;;3.00;99.90;;;;;;4974089;28;20031;-76
2023/04/26 04:12:42;;;;;;;7.10;3.00;;;3.00;99.90;;;;;;4973910;28;20557;-79
2023/04/26 04:15:09;;;;;;;9.57;3.28;;;2.90;99.90;;;;;;4956650;28;20373;-76
2023/04/26 04:17:34;;;;;;;11.02;3.72;;;2.90;99.90;;;;;;4973639;28;20485;-77
2023/04/26 04:20:04;;;;;;;9.25;3.40;;;2.90;99.90;;;;;;4956589;28;20061;-77
2023/04/26 04:22:29;;;;;;;13.20;3.38;;;2.90;99.90;;;;;;4973850;28;20049;-78
2023/04/26 04:24:56;;;;;;;11.30;3.50;;;2.80;99.90;;;;;;4956063;28;20051;-76
2023/04/26 04:27:22;;;;;;;12.38;3.70;;;2.80;99.90;;;;;;4974146;28;20113;-77
2023/04/26 04:29:47;;;;;;;11.27;4.22;;;2.80;99.90;;;;;;4974957;28;20110;-77
2023/04/26 04:32:14;;;;;;;15.05;4.07;;;2.80;99.90;;;;;;4960149;28;20047;-77
2023/04/26 04:34:40;;;;;;;14.02;3.58;;;2.70;99.90;;;;;;4977506;28;20438;-76
2023/04/26 04:37:06;;;;;;;13.05;3.45;;;2.80;99.90;;;;;;4977920;28;20079;-77
2023/04/26 04:39:32;;;;;;;9.23;3.83;;;2.80;99.90;;;;;;4977914;28;20166;-77
2023/04/26 04:41:59;;;;;;;11.80;4.32;;;2.80;99.90;;;;;;4960129;28;20054;-76
2023/04/26 04:44:25;;;;;;;19.40;4.75;;;2.90;99.90;;;;;;4959837;28;20082;-77
2023/04/26 04:46:51;;;;;;;11.60;4.28;;;3.00;99.90;;;;;;4960176;28;20339;-76
2023/04/26 04:49:17;;;;;;;11.85;4.40;;;3.10;99.90;;;;;;4977292;28;20038;-76
2023/04/26 04:51:43;;;;;;;15.35;4.22;;;3.20;99.90;;;;;;4977474;28;20055;-77
2023/04/26 04:54:13;;;;;;;9.40;4.35;;;3.20;99.90;;;;;;4977553;28;20039;-77
2023/04/26 04:56:39;;;;;;;11.57;4.00;;;3.30;99.90;;;;;;4959941;28;20046;-76
2023/04/26 04:59:05;;;;;;;11.18;3.72;;;3.30;99.90;;;;;;4959874;28;20183;-77
2023/04/26 05:01:34;;;;;;;10.55;3.75;;;3.40;99.90;;;;;;4977357;28;20050;-76
2023/04/26 05:04:00;;;;;;;10.27;4.38;;;3.50;99.90;;;;;;4959597;28;20046;-76
2023/04/26 05:06:26;;;;;;;12.93;4.30;;;3.50;99.90;;;;;;4959586;28;20043;-76
2023/04/26 05:08:53;;;;;;;15.07;4.28;;;3.60;99.90;;;;;;4959629;28;20051;-77
2023/04/26 05:11:19;;;;;;;11.10;4.75;;;3.70;99.90;;;;;;4977068;28;20043;-78
2023/04/26 05:13:45;;;;;;;10.52;4.10;;;3.70;99.90;;;;;;4960133;28;20125;-77
2023/04/26 05:16:11;;;;;;;11.13;3.63;;;3.80;99.90;;;;;;4976866;28;20047;-76
2023/04/26 05:18:37;;;;;;;6.60;3.17;;;3.90;99.90;;;;;;4976731;28;20035;-78
2023/04/26 05:21:03;;;;;;;9.93;3.50;;;4.00;99.90;;;;;;4976952;28;20122;-77
2023/04/26 05:23:29;;;;;;;10.35;3.80;;;4.00;99.90;;;;;;4959412;28;20133;-77
2023/04/26 05:25:54;;;;;;;8.48;3.30;;;4.10;99.90;;;;;;4943276;28;20050;-75
2023/04/26 05:28:20;;;;;;;10.23;3.42;;;4.10;99.90;;;;;;4959174;28;20047;-77
2023/04/26 05:30:48;;;;;;;9.35;3.95;;;4.20;99.90;;;;;;4959171;28;20047;-76
2023/04/26 05:33:14;;;;;;;8.38;3.33;;;4.20;99.90;;;;;;4959057;28;20047;-77
2023/04/26 05:35:40;;;;;;;8.48;4.18;;;4.20;99.90;;;;;;4959154;28;20038;-76
2023/04/26 05:38:06;;;;;;;10.25;3.35;;;4.30;99.90;;;;;;4959085;28;20438;-77
2023/04/26 05:40:31;;;;;;;7.30;3.10;;;4.30;99.90;;;;;;4943023;28;20061;-77
2023/04/26 05:42:57;;;;;;;11.10;3.40;;;4.30;99.90;;;;;;4957942;28;20045;-76
2023/04/26 05:45:23;;;;;;;8.25;2.85;;;4.30;99.90;;;;;;4959271;28;20054;-76
2023/04/26 05:47:50;;;;;;;6.82;3.00;;;4.30;99.90;;;;;;4959154;28;20391;-77
2023/04/26 05:50:15;;;;;;;9.13;2.70;;;4.30;99.90;;;;;;4958760;28;20058;-77
2023/04/26 05:52:41;;;;;;;6.70;2.83;;;4.30;99.90;;;;;;4959289;28;20039;-77
2023/04/26 05:55:07;;;;;;;5.85;2.75;;;4.30;99.90;;;;;;4958868;28;20074;-76
2023/04/26 05:57:33;;;;;;;7.20;2.38;;;4.30;99.90;;;;;;4976447;28;20078;-76
2023/04/26 05:59:59;;;;;;;9.18;3.30;;;4.30;99.90;;;;;;4976289;28;20132;-77
2023/04/26 06:02:25;;;;;;;5.93;2.80;;;4.40;99.90;;;;;;4975892;28;20053;-76
2023/04/26 06:04:51;;;;;;;6.15;2.97;;;4.40;99.90;;;;;;4975872;28;20039;-77
2023/04/26 06:07:17;;;;;;;6.80;2.65;;;4.50;99.90;;;;;;4958507;28;20085;-77
2023/04/26 06:09:43;;;;;;;7.57;2.78;;;4.60;99.90;;;;;;4958486;28;20046;-76
2023/04/26 06:12:08;;;;;;;9.73;3.00;;;4.70;99.90;;;;;;4942320;28;20071;-78
2023/04/26 06:14:34;;;;;;;9.10;3.00;;;4.80;99.90;;;;;;4958411;28;20114;-77
2023/04/26 06:17:00;;;;;;;7.50;2.90;;;4.90;99.90;;;;;;4975956;28;20035;-76
2023/04/26 06:19:26;;;;;;;6.90;2.97;;;5.00;99.90;;;;;;4975620;28;20049;-75
2023/04/26 06:21:54;;;;;;;5.68;2.80;;;5.10;99.90;;;;;;4958398;28;20035;-78
2023/04/26 06:24:19;;;;;;;10.10;2.90;;;5.20;99.90;;;;;;4958399;28;20053;-77
2023/04/26 06:26:45;;;;;;;7.05;2.78;;;5.30;99.90;;;;;;4942312;28;20035;-77
2023/04/26 06:29:11;;;;;;;11.70;3.65;;;5.40;99.90;;;;;;4976128;28;20038;-74
2023/04/26 06:31:36;;;;;;;8.50;2.40;;;5.50;99.90;;;;;;4976625;28;20097;-75
2023/04/26 06:34:02;;;;;;;8.75;3.05;;;5.60;99.90;;;;;;4960062;28;20185;-79
2023/04/26 06:36:28;;;;;;;8.70;3.40;;;5.70;99.90;;;;;;4958480;28;20053;-76
2023/04/26 06:38:53;;;;;;;5.22;2.05;;;5.90;99.90;;;;;;4976899;28;20125;-77
2023/04/26 06:41:21;;;;;;;5.72;1.85;;;6.00;99.90;;;;;;4976322;28;20035;-76
2023/04/26 06:43:47;;;;;;;6.30;1.83;;;6.10;99.90;;;;;;4958293;28;20136;-75
2023/04/26 06:46:13;;;;;;;8.63;2.20;;;6.10;99.90;;;;;;4974593;28;20102;-78
2023/04/26 06:48:39;;;;;;;7.72;2.00;;;6.20;99.90;;;;;;4967195;28;20027;-75
2023/04/26 06:51:08;;;;;;;7.75;2.17;;;6.20;99.90;;;;;;4941723;28;20043;-75
2023/04/26 06:53:35;;;;;;;8.73;2.40;;;6.30;99.90;;;;;;4975149;28;20149;-76
2023/04/26 06:56:01;;;;;;;7.95;2.67;;;6.40;99.90;;;;;;4957830;28;20046;-78
2023/04/26 06:58:27;;;;;;;7.65;2.13;;;6.60;99.90;;;;;;4957900;28;20046;-76
2023/04/26 07:00:52;;;;;;;9.40;2.22;;;6.70;99.90;;;;;;4975090;28;20398;-78
2023/04/26 07:03:18;;;;;;;5.63;2.10;;;6.80;99.90;;;;;;4973736;28;20082;-79
2023/04/26 07:05:43;;;;;;;6.57;2.38;;;6.90;99.90;;;;;;4974036;28;20035;-78
2023/04/26 07:08:09;;;;;;;6.07;1.88;;;6.90;99.90;;;;;;4958589;28;20038;-78
2023/04/26 07:10:35;;;;;;;6.82;2.10;;;7.10;99.90;;;;;;4975773;28;20039;-76
2023/04/26 07:13:01;;;;;;;9.70;2.28;;;7.10;99.90;;;;;;4973431;28;20030;-77
2023/04/26 07:15:27;;;;;;;7.50;2.65;;;7.10;99.90;;;;;;4966602;28;20043;-77
2023/04/26 07:17:53;;;;;;;7.40;2.15;;;7.10;99.90;;;;;;4977001;28;20047;-78
2023/04/26 07:20:20;;;;;;;5.82;2.17;;;7.10;99.90;;;;;;4974961;28;20042;-77
2023/04/26 07:22:46;;;;;;;6.47;2.10;;;7.10;99.90;;;;;;4958095;28;20042;-77
2023/04/26 07:25:12;;;;;;;4.07;1.73;;;7.20;99.90;;;;;;4957489;28;20050;-78
2023/04/26 07:27:37;;;;;;;6.57;2.20;;;7.30;99.90;;;;;;4958196;28;20054;-77
2023/04/26 07:30:04;;;;;;;4.30;1.50;;;7.30;99.90;;;;;;4957818;28;20042;-78
2023/04/26 07:32:30;;;;;;;7.32;2.05;;;7.40;99.90;;;;;;4957446;28;20505;-76
2023/04/26 07:34:56;;;;;;;5.90;2.05;;;7.50;99.90;;;;;;4957887;28;20047;-76
2023/04/26 07:37:22;;;;;;;5.40;1.67;;;7.50;99.90;;;;;;4957613;28;20079;-76
2023/04/26 07:39:47;;;;;;;4.20;1.60;;;7.60;99.90;;;;;;4974987;28;20042;-78
2023/04/26 07:42:13;;;;;;;7.40;1.67;;;7.70;99.90;;;;;;4974711;28;20081;-77
2023/04/26 07:44:39;;;;;;;6.85;1.52;;;7.80;99.90;;;;;;4957009;28;20042;-77
2023/04/26 07:47:10;;;;;;;6.32;1.70;;;7.90;99.90;;;;;;4974730;28;20045;-76
2023/04/26 07:49:36;;;;;;;5.95;1.50;;;7.90;99.90;;;;;;4974605;28;20403;-77
2023/04/26 07:52:01;;;;;;;5.47;1.85;;;8.00;99.90;;;;;;4957782;28;20038;-78
2023/04/26 07:54:27;;;;;;;8.90;1.90;;;8.00;99.90;;;;;;4957398;28;20073;-77
2023/04/26 07:56:54;;;;;;;7.68;1.55;;;8.10;99.90;;;;;;4974361;28;20140;-78
2023/04/26 07:59:19;;;;;;;6.50;1.90;;;8.20;99.90;;;;;;4974044;28;20479;-75
2023/04/26 08:01:45;;;;;;;8.10;2.10;;;8.20;99.90;;;;;;4974134;28;20039;-77
2023/04/26 08:04:11;;;;;;;9.73;1.83;;;8.20;99.90;;;;;;4956727;28;20118;-78
2023/04/26 08:06:37;;;;;;;8.57;1.88;;;8.10;99.90;;;;;;4974124;28;20042;-78
2023/04/26 08:09:04;;;;;;;8.02;1.80;;;8.10;99.90;;;;;;4956735;28;20043;-77
2023/04/26 08:11:29;;;;;;;7.38;2.00;;;8.10;99.90;;;;;;4941378;28;20043;-77
2023/04/26 08:13:55;;;;;;;6.20;1.50;;;8.10;99.90;;;;;;4966858;28;20133;-77
2023/04/26 08:16:20;;;;;;;7.72;1.63;;;8.20;99.90;;;;;;4957561;28;20041;-77
2023/04/26 08:18:46;;;;;;;7.90;2.00;;;8.10;99.90;;;;;;4955968;28;20488;-78
2023/04/26 08:21:12;;;;;;;6.53;1.55;;;8.20;99.90;;;;;;4956744;28;20117;-78
2023/04/26 08:23:38;;;;;;;5.50;1.40;;;8.10;99.90;;;;;;4956740;28;20039;-77
2023/04/26 08:26:04;;;;;;;10.43;1.70;;;8.20;99.90;;;;;;4958791;28;20078;-76
2023/04/26 08:28:40;;;;;;;6.75;1.65;;;8.40;99.90;;;;;;4983600;28;20034;-76
2023/04/26 08:31:16;;;;;;;7.63;1.70;;;8.50;99.90;;;;;;4965971;28;20039;-76
2023/04/26 08:33:41;;;;;;;7.90;2.00;;;8.60;99.90;;;;;;4917278;28;20079;-76
2023/04/26 08:36:07;;;;;;;8.90;1.83;;;9.30;99.90;;;;;;4976739;28;20073;-76
2023/04/26 08:38:33;;;;;;;8.27;1.88;;;9.80;99.90;;;;;;4940778;28;20482;-75
2023/04/26 08:41:02;;;;;;;6.47;1.50;;;10.10;99.90;;;;;;4956654;28;20133;-77
2023/04/26 08:43:28;;;;;;;7.15;2.17;;;10.30;99.90;;;;;;4940235;28;20101;-78
2023/04/26 08:45:54;;;;;;;7.25;1.60;;;10.20;99.90;;;;;;4956691;28;20050;-77
2023/04/26 08:48:20;;;;;;;4.97;1.80;;;10.00;99.90;;;;;;4973604;28;20513;-79
2023/04/26 08:50:47;;;;;;;7.75;1.75;;;9.70;99.90;;;;;;4973990;28;20450;-76
2023/04/26 08:53:16;;;;;;;4.38;1.38;;;9.60;99.90;;;;;;4956299;28;20047;-76
2023/04/26 08:55:49;;;;;;;6.55;2.33;;;9.40;99.90;;;;;;4973726;28;20043;-77
2023/04/26 08:58:16;;;;;;;9.15;1.92;;;9.60;99.90;;;;;;4956132;28;20050;-79
2023/04/26 09:00:44;;;;;;;7.30;1.58;;;10.10;99.90;;;;;;4956610;28;20047;-75
2023/04/26 09:03:10;;;;;;;5.95;1.65;;;10.30;99.90;;;;;;4956165;28;20126;-76
2023/04/26 09:05:38;;;;;;;5.80;1.50;;;10.80;99.90;;;;;;4957123;28;20610;-77
2023/04/26 09:08:06;;;;;;;7.32;1.70;;;10.60;99.90;;;;;;4956269;28;20051;-77
2023/04/26 09:10:31;;;;;;;6.15;2.20;;;10.60;99.90;;;;;;4956739;28;20394;-77
2023/04/26 09:12:57;;;;;;;7.88;1.90;;;10.60;99.90;;;;;;4956771;28;20050;-77
2023/04/26 09:15:25;;;;;;;6.25;1.50;;;10.30;99.90;;;;;;4940632;28;20471;-77
2023/04/26 09:17:51;;;;;;;6.22;1.92;;;10.00;99.90;;;;;;4943130;28;20129;-74
2023/04/26 09:20:23;;;;;;;9.13;2.47;;;9.60;99.90;;;;;;4977316;28;20066;-76
2023/04/26 09:23:09;;;;;;;6.93;2.30;;;9.30;99.90;;;;;;4977200;28;20031;-76
2023/04/26 09:25:35;;;;;;;11.38;2.10;;;8.90;99.90;;;;;;4960065;28;20054;-76
2023/04/26 09:28:02;;;;;;;10.50;2.00;;;8.60;99.90;;;;;;4960268;28;20364;-77
2023/04/26 09:30:29;;;;;;;10.73;2.22;;;8.50;99.90;;;;;;4959433;28;20436;-74
2023/04/26 09:33:04;;;;;;;6.13;1.80;;;8.30;99.90;;;;;;4943488;28;20035;-75
2023/04/26 09:35:34;;;;;;;6.68;1.85;;;8.30;99.90;;;;;;4959582;28;20042;-74
2023/04/26 09:38:06;;;;;;;6.53;1.75;;;8.30;99.90;;;;;;4943937;28;20057;-77
2023/04/26 09:40:34;;;;;;;8.88;2.15;;;8.30;99.90;;;;;;4983910;28;20061;-76
2023/04/26 09:43:15;;;;;;;6.40;2.15;;;8.40;99.90;;;;;;4986300;28;20070;-74
2023/04/26 09:45:47;;;;;;;5.05;1.88;;;8.20;99.90;;;;;;4985953;28;20122;-76
2023/04/26 09:48:21;;;;;;;10.30;2.65;;;8.20;99.90;;;;;;4966669;28;20086;-76
2023/04/26 09:50:49;;;;;;;5.88;1.80;;;8.20;99.90;;;;;;4977149;28;20034;-76
2023/04/26 09:53:36;;;;;;;5.10;2.17;;;8.20;99.90;;;;;;4959752;28;20049;-74
2023/04/26 09:56:09;;;;;;;5.32;2.33;;;8.40;99.90;;;;;;4958950;28;20458;-76
2023/04/26 09:58:45;;;;;;;5.65;2.03;;;8.50;99.90;;;;;;4976364;28;20039;-74
2023/04/26 10:01:12;;;;;;;;;;;8.80;99.90;;;;;;4976894;28;20042;-78
2023/04/26 10:03:39;;;;;;;7.05;2.15;;;9.20;99.90;;;;;;4959899;28;20331;-75
2023/04/26 10:06:05;;;;;;;5.75;1.90;;;9.40;99.90;;;;;;4959430;28;20050;-74
2023/04/26 10:08:32;;;;;;;7.25;1.98;;;9.40;99.90;;;;;;4943135;28;20109;-75
2023/04/26 10:10:58;;;;;;;8.23;1.90;;;9.50;99.90;;;;;;4959489;28;20052;-75
2023/04/26 10:13:24;;;;;;;5.13;1.65;;;9.50;99.90;;;;;;4958808;28;20047;-75
2023/04/26 10:15:52;;;;;;;6.45;2.08;;;9.60;99.90;;;;;;4959315;28;20050;-76
2023/04/26 10:18:18;;;;;;;4.22;1.83;;;9.60;99.90;;;;;;4959203;28;20053;-74
2023/04/26 10:20:50;;;;;;;10.20;2.33;;;9.70;99.90;;;;;;4959465;28;20046;-75
2023/04/26 10:23:20;;;;;;;7.03;1.92;;;9.70;99.90;;;;;;4943096;28;20082;-77
2023/04/26 10:25:46;;;;;;;6.88;2.10;;;9.80;99.90;;;;;;4958821;28;20047;-76
2023/04/26 10:28:12;;;;;;;9.60;2.03;;;10.00;99.90;;;;;;4959031;28;20457;-75
2023/04/26 10:30:59;;;;;;;11.45;1.70;;;10.10;99.90;;;;;;4976243;28;20046;-74
2023/04/26 10:33:25;;;;;;;6.93;2.00;;;10.50;99.90;;;;;;4976487;28;20042;-77
2023/04/26 10:36:19;;;;;;;4.18;1.75;;;10.90;99.90;;;;;;4958896;28;20050;-75
2023/04/26 10:39:26;;;;;;;5.30;1.80;;;11.30;99.90;;;;;;4957609;28;20050;-78
2023/04/26 10:42:23;;;;;;;6.63;2.00;;;11.40;99.90;;;;;;4976456;28;20038;-80
2023/04/26 10:44:57;;;;;;;7.13;2.20;;;11.40;99.90;;;;;;4943180;28;20101;-76
2023/04/26 10:47:27;;;;;;;6.88;2.20;;;11.30;99.90;;;;;;4976189;28;20088;-78
2023/04/26 10:50:07;;;;;;;5.32;1.83;;;11.10;99.90;;;;;;4958194;28;20137;-78
2023/04/26 10:52:34;;;;;;;4.75;1.63;;;10.80;99.90;;;;;;4975858;28;20071;-75
2023/04/26 10:55:01;;;;;;;11.48;2.40;;;10.70;99.90;;;;;;4958833;28;20042;-79
2023/04/26 10:57:47;;;;;;;9.63;2.47;;;10.50;99.90;;;;;;4975823;28;20494;-82
2023/04/26 11:00:27;;;;;;;6.68;2.00;;;10.40;99.90;;;;;;4958299;28;20082;-77
2023/04/26 11:03:03;;;;;;;9.45;2.13;;;10.30;99.90;;;;;;4958136;28;20078;-80
2023/04/26 11:05:33;;;;;;;8.13;2.00;;;10.30;99.90;;;;;;4958815;28;20047;-78
2023/04/26 11:08:05;;;;;;;7.93;2.30;;;10.00;99.90;;;;;;4976084;28;20043;-77
2023/04/26 11:10:31;;;;;;;7.28;1.98;;;9.90;99.90;;;;;;4975723;28;20043;-78
2023/04/26 11:13:04;;;;;;;8.25;2.22;;;9.80;99.90;;;;;;4975380;28;20038;-72
2023/04/26 11:15:31;;;;;;;8.88;2.20;;;9.60;99.90;;;;;;4975925;28;20038;-80
2023/04/26 11:17:57;;;;;;;5.25;2.20;;;9.40;99.90;;;;;;4942328;28;20047;-77
2023/04/26 11:20:29;;;;;;;11.38;2.45;;;9.30;99.90;;;;;;4975408;28;20506;-75
2023/04/26 11:22:54;;;;;;;8.07;2.45;;;9.30;99.90;;;;;;4958699;28;20053;-76
2023/04/26 11:25:23;;;;;;;8.07;2.47;;;9.30;99.90;;;;;;4974874;28;20043;-74
2023/04/26 11:27:49;;;;;;;6.25;2.15;;;9.30;99.90;;;;;;4958151;28;20125;-79
2023/04/26 11:30:18;;;;;;;8.63;2.78;;;9.30;99.90;;;;;;4975215;28;20125;-81
2023/04/26 11:32:47;;;;;;;8.57;2.30;;;9.20;99.90;;;;;;4958109;28;20049;-80
2023/04/26 11:35:14;;;;;;;6.15;2.17;;;9.10;99.90;;;;;;4941705;28;20129;-77
2023/04/26 11:37:40;;;;;;;7.72;2.40;;;8.90;99.90;;;;;;4975013;28;20050;-77
2023/04/26 11:40:10;;;;;;;8.10;2.60;;;8.80;99.90;;;;;;4974052;28;20089;-79
2023/04/26 11:42:35;;;;;;;8.23;2.50;;;8.70;99.90;;;;;;4957474;28;20051;-78
2023/04/26 11:45:05;;;;;;;8.30;2.72;;;8.60;99.90;;;;;;4974340;28;20042;-78
2023/04/26 11:47:32;;;;;;;13.65;3.10;;;8.70;99.90;;;;;;4974708;28;20061;-77
2023/04/26 11:49:59;;;;;;;9.75;2.60;;;8.70;99.90;;;;;;4974592;28;20126;-77
2023/04/26 11:52:26;;;;;;;8.27;2.65;;;8.80;99.90;;;;;;4975338;28;20101;-76
2023/04/26 11:55:07;;;;;;;11.27;2.92;;;8.90;99.90;;;;;;4957507;28;20375;-77
2023/04/26 11:57:33;;;;;;;6.65;2.40;;;9.10;99.90;;;;;;4957289;28;20054;-77
2023/04/26 12:00:13;;;;;;;8.02;2.58;;;9.20;99.90;;;;;;4957394;28;20070;-76
2023/04/26 12:02:40;;;;;;;5.50;2.20;;;9.20;99.90;;;;;;4959049;28;20038;-77
2023/04/26 12:05:07;;;;;;;6.60;2.40;;;9.30;99.90;;;;;;4966879;28;20058;-76
2023/04/26 12:07:37;;;;;;;4.60;2.28;;;9.50;99.90;;;;;;4966555;28;20074;-75
2023/04/26 12:10:16;;;;;;;5.07;1.95;;;9.70;99.90;;;;;;4975629;28;20039;-79
2023/04/26 12:12:49;;;;;;;7.15;2.10;;;10.00;99.90;;;;;;4968275;28;20047;-77
2023/04/26 12:15:17;;;;;;;6.05;2.00;;;10.20;99.90;;;;;;4973610;28;20129;-78
2023/04/26 12:18:09;;;;;;;6.65;2.50;;;10.30;99.90;;;;;;4973017;28;20129;-77
2023/04/26 12:20:37;;;;;;;10.18;2.33;;;10.60;99.90;;;;;;4956908;28;20047;-77
2023/04/26 12:23:04;;;;;;;8.60;2.25;;;10.80;99.90;;;;;;4957240;28;20494;-77
2023/04/26 12:25:34;;;;;;;5.50;2.03;;;11.00;99.90;;;;;;4956572;28;20047;-76
2023/04/26 12:28:02;;;;;;;6.20;2.70;;;11.20;99.90;;;;;;4941187;28;20560;-78
2023/04/26 12:30:30;;;;;;;7.07;2.10;;;11.40;99.90;;;;;;4974106;28;20035;-76
2023/04/26 12:32:56;;;;;;;5.75;2.30;;;11.60;99.90;;;;;;4956970;28;20108;-75
2023/04/26 12:35:24;;;;;;;8.45;2.20;;;11.70;99.90;;;;;;4956745;28;20130;-77
2023/04/26 12:37:51;;;;;;;6.45;2.17;;;11.70;99.90;;;;;;4957438;28;20126;-77
2023/04/26 12:40:18;;;;;;;9.93;2.17;;;11.70;99.90;;;;;;4956701;28;20046;-75
2023/04/26 12:42:46;;;;;;;7.18;2.10;;;11.60;99.90;;;;;;4956847;28;20118;-77
2023/04/26 12:45:12;;;;;;;5.03;1.80;;;11.50;99.90;;;;;;4974452;28;20119;-78
2023/04/26 12:47:38;;;;;;;5.75;1.98;;;11.50;99.90;;;;;;4956706;28;20039;-79
2023/04/26 12:50:04;;;;;;;6.05;2.70;;;11.30;99.90;;;;;;4943495;28;20070;-78
2023/04/26 12:52:31;;;;;;;5.28;2.13;;;11.00;99.90;;;;;;4971185;28;20035;-77
2023/04/26 12:54:57;;;;;;;7.32;2.20;;;10.60;99.90;;;;;;4953696;28;20378;-78
2023/04/26 12:57:22;;;;;;;7.72;1.98;;;10.40;99.90;;;;;;4960195;28;20483;-80
2023/04/26 12:59:48;;;;;;;4.35;2.00;;;10.40;99.90;;;;;;4960135;28;20057;-78
2023/04/26 13:02:14;;;;;;;8.38;2.33;;;10.50;99.90;;;;;;4959951;28;20047;-77
2023/04/26 13:04:40;;;;;;;5.50;1.52;;;10.30;99.90;;;;;;4944490;28;20047;-77
2023/04/26 13:07:06;;;;;;;6.00;1.95;;;10.30;99.90;;;;;;4944500;28;20038;-77
2023/04/26 13:09:31;;;;;;;7.00;1.92;;;10.60;99.90;;;;;;4959969;28;20097;-78
2023/04/26 13:11:57;;;;;;;9.63;2.15;;;10.80;99.90;;;;;;4960016;28;20038;-78
2023/04/26 13:14:22;;;;;;;4.30;2.00;;;11.00;99.90;;;;;;4977137;28;20438;-77
2023/04/26 13:16:49;;;;;;;6.88;2.65;;;11.30;99.90;;;;;;4960805;28;20119;-78
2023/04/26 13:19:15;;;;;;;8.50;2.10;;;11.50;99.90;;;;;;4959937;28;20047;-78
2023/04/26 13:21:41;;;;;;;8.40;2.20;;;11.50;99.90;;;;;;4959921;28;20050;-79
2023/04/26 13:24:07;;;;;;;8.70;2.22;;;11.60;99.90;;;;;;4977364;28;20043;-76
2023/04/26 13:26:33;;;;;;;5.63;1.52;;;11.70;99.90;;;;;;4959545;28;20439;-78
2023/04/26 13:28:59;;;;;;;9.82;2.03;;;11.90;99.90;;;;;;4976993;28;20130;-78
2023/04/26 13:31:24;;;;;;;7.82;1.83;;;12.00;99.90;;;;;;4959849;28;20039;-77
2023/04/26 13:33:50;;;;;;;6.30;1.80;;;12.30;99.90;;;;;;4960047;28;20101;-79
2023/04/26 13:36:16;;;;;;;6.57;1.90;;;12.10;99.90;;;;;;4960191;28;20144;-78
2023/04/26 13:38:42;;;;;;;5.93;2.22;;;12.30;99.00;;;;;;4976853;28;20569;-79
2023/04/26 13:41:10;;;;;;;5.50;1.77;;;12.20;99.70;;;;;;4959574;28;20051;-78
2023/04/26 13:43:36;;;;;;;6.82;1.98;;;12.10;99.40;;;;;;4959361;28;20152;-76
2023/04/26 13:46:01;;;;;;;10.43;2.55;;;12.00;99.90;;;;;;4977253;28;20031;-78
2023/04/26 13:48:27;;;;;;;4.32;1.73;;;11.80;99.90;;;;;;4996395;28;20034;-78
2023/04/26 13:50:55;;;;;;;6.20;1.90;;;11.70;99.80;;;;;;4972773;28;20045;-79
2023/04/26 13:53:21;;;;;;;8.93;1.95;;;11.60;99.90;;;;;;4976240;28;20046;-78
2023/04/26 13:55:47;;;;;;;6.40;1.85;;;11.70;99.90;;;;;;4969911;28;20043;-77
2023/04/26 13:58:13;;;;;;;6.13;2.20;;;11.80;99.90;;;;;;4961254;28;20038;-80
2023/04/26 14:00:39;;;;;;;5.22;1.70;;;11.90;99.90;;;;;;4958913;28;20041;-78
2023/04/26 14:03:04;;;;;;;5.70;1.75;;;12.00;99.90;;;;;;4975589;28;20439;-77
2023/04/26 14:05:30;;;;;;;9.60;2.10;;;11.90;99.90;;;;;;4959111;28;20097;-76
2023/04/26 14:07:56;;;;;;;8.68;2.75;;;11.60;99.90;;;;;;4959108;28;20091;-77
2023/04/26 14:10:22;;;;;;;7.82;1.85;;;11.40;99.90;;;;;;4958733;28;20487;-77
2023/04/26 14:12:48;;;;;;;7.45;2.55;;;11.20;99.90;;;;;;4959098;28;20042;-77
2023/04/26 14:15:14;;;;;;;6.38;1.90;;;11.00;99.90;;;;;;4958724;28;20498;-78
2023/04/26 14:17:39;;;;;;;6.47;2.15;;;10.80;99.90;;;;;;4975919;28;20042;-78
2023/04/26 14:20:07;;;;;;;6.28;2.67;;;10.60;99.90;;;;;;4958871;28;20050;-78
2023/04/26 14:22:33;;;;;;;6.30;2.28;;;10.60;99.90;;;;;;4975734;28;20491;-77
2023/04/26 14:24:58;;;;;;;5.20;2.13;;;10.50;99.90;;;;;;4958367;28;20062;-79
2023/04/26 14:27:24;;;;;;;6.72;2.17;;;10.30;99.90;;;;;;4958863;28;20078;-78
2023/04/26 14:29:50;;;;;;;5.68;2.10;;;10.30;99.90;;;;;;4958455;28;20046;-77
2023/04/26 14:32:16;;;;;;;9.05;2.67;;;10.20;99.90;;;;;;4958117;28;20454;-78
2023/04/26 14:34:41;;;;;;;8.35;2.50;;;10.20;99.90;;;;;;4958222;28;20046;-78
2023/04/26 14:37:07;;;;;;;6.50;2.13;;;10.20;99.90;;;;;;4942338;28;20051;-76
2023/04/26 14:39:33;;;;;;;5.45;2.00;;;10.20;99.90;;;;;;4958228;28;20047;-77
2023/04/26 14:42:00;;;;;;;6.63;2.15;;;10.20;99.90;;;;;;4975418;28;20122;-78
2023/04/26 14:44:26;;;;;;;9.35;2.17;;;10.30;99.90;;;;;;4958558;28;20099;-79
2023/04/26 14:46:52;;;;;;;7.13;2.20;;;10.20;99.90;;;;;;4958482;28;20061;-79
2023/04/26 14:49:18;;;;;;;8.55;2.35;;;10.20;99.90;;;;;;4975821;28;20079;-78
2023/04/26 14:51:44;;;;;;;6.00;2.28;;;10.10;99.90;;;;;;4957941;28;20050;-77
2023/04/26 14:54:10;;;;;;;6.13;2.20;;;10.10;99.90;;;;;;4958141;28;20042;-78
2023/04/26 14:56:36;;;;;;;6.88;2.67;;;10.10;99.90;;;;;;4957967;28;20434;-77
2023/04/26 14:59:05;;;;;;;8.65;2.47;;;10.00;99.90;;;;;;4975476;28;20157;-77
2023/04/26 15:01:31;;;;;;;6.53;2.10;;;10.10;99.90;;;;;;4958034;28;20050;-77
2023/04/26 15:03:56;;;;;;;9.25;2.05;;;10.20;99.90;;;;;;4959080;28;20085;-76
2023/04/26 15:06:26;;;;;;;5.45;2.10;;;10.30;99.90;;;;;;4976607;28;20043;-77
2023/04/26 15:08:51;;;;;;;6.60;2.00;;;10.40;99.90;;;;;;4975650;28;20486;-77
2023/04/26 15:11:17;;;;;;;8.93;2.22;;;10.40;99.90;;;;;;4957753;28;20062;-78
2023/04/26 15:13:42;;;;;;;6.35;2.10;;;10.50;99.90;;;;;;4974956;28;20035;-76
2023/04/26 15:16:08;;;;;;;5.25;1.88;;;10.50;99.90;;;;;;4957825;28;20053;-78
2023/04/26 15:18:34;;;;;;;4.25;1.92;;;10.50;99.90;;;;;;4975116;28;20403;-77
2023/04/26 15:20:59;;;;;;;5.75;1.90;;;10.40;99.90;;;;;;4974946;28;20042;-77
2023/04/26 15:23:25;;;;;;;5.55;1.60;;;10.30;99.90;;;;;;4974698;28;20494;-77
2023/04/26 15:25:51;;;;;;;8.00;1.92;;;10.30;99.90;;;;;;4957833;28;20140;-78
2023/04/26 15:28:17;;;;;;;6.18;2.10;;;10.40;99.90;;;;;;4957224;28;20479;-76
2023/04/26 15:30:42;;;;;;;8.10;2.08;;;10.60;99.90;;;;;;4974761;28;20074;-77
2023/04/26 15:33:09;;;;;;;4.68;1.70;;;11.20;99.90;;;;;;4974752;28;20061;-78
2023/04/26 15:35:35;;;;;;;6.45;1.70;;;11.50;99.90;;;;;;4974581;28;20051;-77
2023/04/26 15:38:00;;;;;;;5.00;1.80;;;11.70;99.90;;;;;;4957791;28;20050;-77
2023/04/26 15:40:26;;;;;;;5.30;2.03;;;11.70;99.90;;;;;;4974629;28;20065;-79
2023/04/26 15:42:52;;;;;;;5.18;1.35;;;11.50;99.90;;;;;;4958088;28;20459;-78
2023/04/26 15:45:19;;;;;;;5.40;1.60;;;11.40;99.90;;;;;;4957111;28;20043;-78
2023/04/26 15:47:45;;;;;;;6.03;1.60;;;11.30;99.90;;;;;;4974652;28;20053;-79
2023/04/26 15:50:11;;;;;;;7.63;1.70;;;11.10;99.90;;;;;;4957091;28;20058;-79
2023/04/26 15:52:38;;;;;;;7.53;1.88;;;10.80;99.90;;;;;;4957157;28;20039;-78